Time;durP1;ratioP1;P1;durP2;ratioP2;P2;SDS_P1;SDS_P2;PMS_P1;PMS_P2;Temp;Humidity;BMP_temperature;BMP_pressure;BME280_temperature;BME280_humidity;BME280_pressure;Samples;Min_cycle;Max_cycle;Signal;HPM_P1;HPM_P2
2023/08/21 00:00:08;;;;;;;5.23;4.73;;;26.90;33.40;;;;;;10265371;28;20290;-70
2023/08/21 00:05:12;;;;;;;5.33;4.93;;;26.90;33.70;;;;;;10247124;28;20236;-69
2023/08/21 00:10:16;;;;;;;4.87;4.47;;;26.80;33.90;;;;;;10262204;28;20899;-69
2023/08/21 00:15:19;;;;;;;5.07;4.63;;;26.80;33.60;;;;;;10274270;28;20266;-69
2023/08/21 00:20:24;;;;;;;5.07;4.67;;;26.70;33.60;;;;;;10250113;28;20649;-70
2023/08/21 00:25:27;;;;;;;4.90;4.60;;;26.70;34.10;;;;;;10266245;28;20772;-69
2023/08/21 00:30:30;;;;;;;5.20;4.70;;;26.70;33.90;;;;;;10289687;28;20639;-69
2023/08/21 00:35:35;;;;;;;4.83;4.33;;;26.60;33.80;;;;;;10273619;28;20239;-69
2023/08/21 00:40:38;;;;;;;5.40;5.00;;;26.60;34.20;;;;;;10259950;28;20239;-69
2023/08/21 00:45:44;;;;;;;4.80;4.40;;;26.50;34.00;;;;;;10271132;28;20751;-69
2023/08/21 00:50:49;;;;;;;5.03;4.50;;;26.40;34.40;;;;;;10281374;28;20310;-69
2023/08/21 00:55:52;;;;;;;5.47;5.07;;;26.20;34.70;;;;;;10282912;28;20235;-69
2023/08/21 01:00:57;;;;;;;6.17;5.67;;;26.10;34.70;;;;;;10288433;28;20236;-69
2023/08/21 01:06:02;;;;;;;6.10;5.60;;;25.90;34.60;;;;;;10265070;28;20235;-70
2023/08/21 01:11:13;;;;;;;5.60;5.27;;;25.60;35.40;;;;;;10270059;28;20235;-70
2023/08/21 01:16:17;;;;;;;5.80;5.30;;;25.50;36.40;;;;;;10271935;28;20243;-69
2023/08/21 01:21:22;;;;;;;5.60;5.17;;;25.40;36.00;;;;;;10272143;28;20247;-69
2023/08/21 01:26:27;;;;;;;5.27;4.93;;;25.30;36.30;;;;;;10271491;28;20248;-69
2023/08/21 01:31:36;;;;;;;5.87;5.37;;;25.10;36.30;;;;;;10277407;28;20235;-69
2023/08/21 01:36:40;;;;;;;4.90;4.50;;;25.00;37.30;;;;;;10275689;28;20235;-69
2023/08/21 01:41:45;;;;;;;5.73;5.27;;;25.00;36.20;;;;;;10271042;28;20239;-69
2023/08/21 01:46:48;;;;;;;5.10;4.70;;;24.90;36.90;;;;;;10278183;28;20232;-69
2023/08/21 01:51:51;;;;;;;5.30;4.80;;;24.90;36.30;;;;;;10285822;28;20235;-69
2023/08/21 01:56:56;;;;;;;4.90;4.60;;;24.90;36.50;;;;;;10254944;28;20289;-70
2023/08/21 02:02:00;;;;;;;5.20;4.80;;;25.00;37.00;;;;;;10276795;28;20240;-70
2023/08/21 02:07:03;;;;;;;4.90;4.60;;;25.00;36.50;;;;;;10261797;28;20239;-69
2023/08/21 02:12:08;;;;;;;5.97;5.47;;;25.00;36.50;;;;;;10271283;28;20239;-69
2023/08/21 02:17:11;;;;;;;5.37;5.00;;;25.00;36.90;;;;;;10274841;28;20787;-69
2023/08/21 02:22:14;;;;;;;5.70;5.30;;;25.00;36.70;;;;;;10252608;28;20761;-69
2023/08/21 02:27:19;;;;;;;5.53;5.03;;;25.00;36.70;;;;;;10261188;28;20295;-70
2023/08/21 02:32:22;;;;;;;5.33;4.70;;;24.90;37.00;;;;;;10256284;28;20268;-69
2023/08/21 02:37:25;;;;;;;5.03;4.63;;;24.90;36.60;;;;;;10277556;28;20315;-70
2023/08/21 02:42:30;;;;;;;6.00;5.50;;;24.80;36.70;;;;;;10282002;28;20338;-69
2023/08/21 02:47:33;;;;;;;5.83;5.33;;;24.70;37.40;;;;;;10283060;28;20314;-69
2023/08/21 02:52:37;;;;;;;5.57;5.17;;;24.60;36.80;;;;;;10267421;28;20236;-70
2023/08/21 02:57:42;;;;;;;5.57;5.17;;;24.30;37.10;;;;;;10266656;28;20243;-69
2023/08/21 03:02:45;;;;;;;5.13;4.77;;;24.20;37.80;;;;;;10268199;28;20323;-70
2023/08/21 03:07:48;;;;;;;5.90;5.30;;;24.10;37.40;;;;;;10265336;28;20714;-70
2023/08/21 03:12:53;;;;;;;5.90;5.30;;;24.10;37.50;;;;;;10267892;28;20331;-69
2023/08/21 03:17:56;;;;;;;5.97;5.57;;;24.20;38.00;;;;;;10273379;28;20740;-70
2023/08/21 03:23:00;;;;;;;5.60;5.17;;;24.20;37.60;;;;;;10281637;28;20815;-70
2023/08/21 03:28:05;;;;;;;5.40;5.00;;;24.20;37.60;;;;;;10258136;28;20227;-70
2023/08/21 03:33:08;;;;;;;6.17;5.57;;;24.20;38.00;;;;;;10272800;28;20240;-70
2023/08/21 03:38:11;;;;;;;7.83;5.40;;;24.10;37.60;;;;;;10249984;28;20244;-69
2023/08/21 03:43:16;;;;;;;6.37;5.10;;;24.00;37.60;;;;;;10275509;28;20311;-70
2023/08/21 03:48:19;;;;;;;5.87;5.37;;;23.90;38.20;;;;;;10264009;28;20236;-69
2023/08/21 03:53:22;;;;;;;5.00;4.60;;;23.80;37.90;;;;;;10272085;28;20258;-70
2023/08/21 03:58:27;;;;;;;6.10;5.70;;;23.80;38.00;;;;;;10270119;28;20259;-69
2023/08/21 04:03:30;;;;;;;6.93;6.33;;;23.70;38.60;;;;;;10273747;28;20246;-70
2023/08/21 04:08:33;;;;;;;6.83;6.17;;;23.70;38.30;;;;;;10269333;28;20235;-69
2023/08/21 04:13:37;;;;;;;5.87;5.37;;;23.60;38.30;;;;;;10270271;28;20246;-70
2023/08/21 04:18:41;;;;;;;6.70;6.10;;;23.60;38.90;;;;;;10259360;28;20311;-70
2023/08/21 04:23:45;;;;;;;6.17;5.67;;;23.50;38.40;;;;;;10270211;28;20262;-70
2023/08/21 04:28:50;;;;;;;5.63;5.23;;;23.50;38.90;;;;;;10280816;28;20675;-70
2023/08/21 04:33:53;;;;;;;6.50;5.90;;;23.50;39.50;;;;;;10288480;28;20239;-69
2023/08/21 04:38:56;;;;;;;6.37;5.90;;;23.50;38.70;;;;;;10262999;28;20243;-70
2023/08/21 04:44:02;;;;;;;5.50;5.10;;;23.50;39.00;;;;;;10263381;28;20750;-70
2023/08/21 04:49:06;;;;;;;6.00;5.50;;;23.50;39.60;;;;;;10269306;28;20259;-69
2023/08/21 04:54:09;;;;;;;5.70;5.30;;;23.40;39.30;;;;;;10263184;28;20246;-70
2023/08/21 04:59:14;;;;;;;6.37;5.87;;;23.40;39.40;;;;;;10270958;28;20728;-70
2023/08/21 05:04:17;;;;;;;6.80;6.20;;;23.40;39.50;;;;;;10279054;28;20305;-70
2023/08/21 05:09:20;;;;;;;6.80;6.10;;;23.40;39.50;;;;;;10265397;28;20243;-69
2023/08/21 05:14:25;;;;;;;7.10;6.50;;;23.40;39.50;;;;;;10276516;28;20243;-70
2023/08/21 05:19:28;;;;;;;6.03;5.63;;;23.40;39.50;;;;;;10272848;28;20232;-69
2023/08/21 05:24:32;;;;;;;6.63;6.20;;;23.40;39.50;;;;;;10278503;28;20907;-70
2023/08/21 05:29:37;;;;;;;7.23;6.73;;;23.40;39.60;;;;;;10262156;28;20264;-70
2023/08/21 05:34:40;;;;;;;7.70;7.00;;;23.40;40.50;;;;;;10280043;28;20239;-70
2023/08/21 05:39:43;;;;;;;7.70;7.00;;;23.40;39.90;;;;;;10278207;28;20760;-69
2023/08/21 05:44:48;;;;;;;8.30;7.60;;;23.40;40.10;;;;;;10277494;28;20322;-70
2023/08/21 05:49:52;;;;;;;7.13;6.63;;;23.30;41.10;;;;;;10263900;28;20247;-70
2023/08/21 05:54:56;;;;;;;8.00;7.30;;;23.30;40.60;;;;;;10278276;28;20240;-70
2023/08/21 06:00:00;;;;;;;8.90;8.00;;;23.40;40.90;;;;;;10243257;28;20232;-70
2023/08/21 06:05:04;;;;;;;7.40;6.90;;;23.40;41.80;;;;;;10276059;28;20243;-71
2023/08/21 06:10:11;;;;;;;7.27;6.77;;;23.40;41.20;;;;;;10263838;28;20236;-71
2023/08/21 06:15:16;;;;;;;7.97;7.37;;;23.50;41.40;;;;;;10266822;28;20243;-71
2023/08/21 06:20:20;;;;;;;7.70;7.10;;;23.50;41.90;;;;;;10272376;28;20242;-71
2023/08/21 06:25:23;;;;;;;8.33;7.73;;;23.60;41.20;;;;;;10261129;28;20327;-72
2023/08/21 06:30:28;;;;;;;8.60;7.90;;;23.70;41.30;;;;;;10273984;28;20255;-71
2023/08/21 06:35:31;;;;;;;7.97;7.20;;;23.80;42.20;;;;;;10268827;28;20231;-71
2023/08/21 06:40:34;;;;;;;9.33;8.53;;;23.90;41.60;;;;;;10274398;28;20566;-71
2023/08/21 06:45:39;;;;;;;8.40;7.70;;;24.00;42.10;;;;;;10255027;28;20236;-70
2023/08/21 06:50:42;;;;;;;7.60;7.00;;;24.10;42.60;;;;;;10267749;28;20784;-73
2023/08/21 06:55:46;;;;;;;8.63;7.93;;;24.20;42.10;;;;;;10250662;28;20237;-74
2023/08/21 07:00:51;;;;;;;8.43;7.83;;;24.30;42.80;;;;;;10267627;28;20263;-71
2023/08/21 07:05:58;;;;;;;9.40;8.27;;;24.50;43.20;;;;;;10243103;28;20247;-71
2023/08/21 07:11:04;;;;;;;9.07;8.27;;;24.70;43.70;;;;;;10259663;28;20904;-71
2023/08/21 07:16:08;;;;;;;9.30;8.63;;;24.80;43.90;;;;;;10264506;28;20240;-71
2023/08/21 07:21:12;;;;;;;8.47;7.77;;;25.00;43.60;;;;;;10271067;28;20423;-71
2023/08/21 07:26:34;;;;;;;8.60;7.90;;;25.20;42.90;;;;;;10268918;28;20782;-71
2023/08/21 07:31:39;;;;;;;9.03;8.13;;;25.40;42.90;;;;;;10271144;28;20638;-71
2023/08/21 07:36:42;;;;;;;8.10;7.50;;;25.60;43.40;;;;;;10260341;28;20728;-72
2023/08/21 07:41:45;;;;;;;7.77;7.07;;;25.80;42.90;;;;;;10268428;28;20239;-72
2023/08/21 07:46:50;;;;;;;8.23;7.63;;;26.10;42.70;;;;;;10264480;28;20262;-72
2023/08/21 07:51:53;;;;;;;8.13;7.53;;;26.30;42.30;;;;;;10259277;28;20236;-73
2023/08/21 07:56:57;;;;;;;8.03;7.43;;;26.50;41.90;;;;;;10263018;28;20239;-72
2023/08/21 08:02:02;;;;;;;7.70;7.13;;;26.80;42.10;;;;;;10264264;28;20232;-71
2023/08/21 08:07:05;;;;;;;8.07;7.37;;;27.00;41.70;;;;;;10259905;28;20318;-73
2023/08/21 08:12:09;;;;;;;7.53;6.93;;;27.20;40.70;;;;;;10261337;28;20282;-72
2023/08/21 08:17:14;;;;;;;8.00;7.40;;;27.50;40.80;;;;;;10259959;28;20304;-72
2023/08/21 08:22:17;;;;;;;8.00;7.30;;;27.80;41.00;;;;;;10257668;28;20243;-72
2023/08/21 08:27:20;;;;;;;7.87;7.17;;;28.10;41.10;;;;;;10251019;28;20930;-72
2023/08/21 08:32:26;;;;;;;8.23;7.63;;;28.40;40.80;;;;;;10250689;28;20872;-72
2023/08/21 08:37:29;;;;;;;7.73;7.13;;;28.70;40.20;;;;;;10256176;28;20243;-73
2023/08/21 08:42:32;;;;;;;8.33;7.63;;;29.00;39.70;;;;;;10252924;28;20716;-72
2023/08/21 08:47:37;;;;;;;8.03;7.43;;;29.30;39.40;;;;;;10270683;28;20230;-74
2023/08/21 08:52:40;;;;;;;7.93;7.33;;;29.60;38.60;;;;;;10274565;28;20843;-73
2023/08/21 08:57:44;;;;;;;8.70;8.00;;;29.90;38.90;;;;;;10265667;28;20766;-72
2023/08/21 09:02:49;;;;;;;8.47;7.87;;;30.20;38.00;;;;;;10266959;28;20658;-72
2023/08/21 09:08:04;;;;;;;8.20;7.60;;;30.40;37.00;;;;;;10265273;28;20235;-73
2023/08/21 09:13:14;;;;;;;8.10;7.53;;;30.60;37.00;;;;;;10281340;28;20234;-73
2023/08/21 09:18:18;;;;;;;7.43;6.87;;;30.90;36.10;;;;;;10262727;28;20263;-71
2023/08/21 09:23:22;;;;;;;8.23;7.60;;;31.20;36.10;;;;;;10261740;28;20247;-71
2023/08/21 09:28:26;;;;;;;8.13;7.43;;;31.40;36.20;;;;;;10274115;28;20263;-71
2023/08/21 09:33:31;;;;;;;8.83;8.00;;;31.70;35.30;;;;;;10272692;28;20600;-71
2023/08/21 09:38:36;;;;;;;8.97;8.30;;;32.00;34.90;;;;;;10276201;28;20314;-70
2023/08/21 09:43:43;;;;;;;8.17;7.60;;;32.20;34.40;;;;;;10265863;28;20239;-71
2023/08/21 09:48:48;;;;;;;7.87;7.27;;;32.40;33.10;;;;;;10260449;28;20230;-70
2023/08/21 09:53:54;;;;;;;8.13;7.43;;;32.60;33.30;;;;;;10261222;28;20609;-71
2023/08/21 09:58:58;;;;;;;6.90;6.43;;;32.90;33.50;;;;;;10260371;28;20229;-72
2023/08/21 10:04:03;;;;;;;7.10;6.50;;;33.10;32.90;;;;;;10268808;28;20349;-71
2023/08/21 10:09:07;;;;;;;6.57;6.07;;;33.20;30.80;;;;;;10262370;28;20253;-71
2023/08/21 10:14:12;;;;;;;6.13;5.63;;;33.40;31.10;;;;;;10261002;28;20230;-71
2023/08/21 10:19:18;;;;;;;6.10;5.60;;;33.50;30.10;;;;;;10261382;28;20244;-70
2023/08/21 10:24:29;;;;;;;6.17;5.67;;;33.70;29.00;;;;;;10270405;28;20711;-70
2023/08/21 10:29:33;;;;;;;5.67;5.30;;;33.80;28.20;;;;;;10259074;28;20227;-70
2023/08/21 10:34:39;;;;;;;6.03;5.60;;;34.00;28.80;;;;;;10264090;28;20243;-70
2023/08/21 10:39:56;;;;;;;6.07;5.60;;;34.10;27.80;;;;;;10261833;28;20302;-71
2023/08/21 10:45:00;;;;;;;6.00;5.60;;;34.10;28.00;;;;;;10264483;28;20242;-70
2023/08/21 10:50:06;;;;;;;6.13;5.73;;;34.30;28.40;;;;;;10274164;28;20244;-71
2023/08/21 10:55:10;;;;;;;6.00;5.60;;;34.40;27.40;;;;;;10267795;28;20313;-70
2023/08/21 11:00:16;;;;;;;6.03;5.57;;;34.50;28.00;;;;;;10271844;28;20239;-71
2023/08/21 11:05:21;;;;;;;5.57;5.17;;;34.60;27.40;;;;;;10265170;28;20224;-71
2023/08/21 11:10:25;;;;;;;5.90;5.40;;;34.60;26.80;;;;;;10275507;28;20227;-70
2023/08/21 11:15:30;;;;;;;6.03;5.57;;;34.70;27.10;;;;;;10269243;28;20769;-70
2023/08/21 11:20:36;;;;;;;5.37;5.07;;;34.80;26.70;;;;;;10262572;28;20741;-70
2023/08/21 11:25:40;;;;;;;6.30;5.80;;;35.00;25.60;;;;;;10261700;28;20231;-72
2023/08/21 11:30:44;;;;;;;6.23;5.83;;;35.00;25.90;;;;;;10262868;28;20715;-72
2023/08/21 11:35:51;;;;;;;6.20;5.80;;;35.10;25.90;;;;;;10250767;28;20237;-71
2023/08/21 11:40:56;;;;;;;6.03;5.53;;;35.10;25.50;;;;;;10254421;28;20321;-72
2023/08/21 11:46:01;;;;;;;6.10;5.60;;;35.20;25.40;;;;;;10267426;28;20219;-71
2023/08/21 11:51:06;;;;;;;5.90;5.50;;;35.30;25.40;;;;;;10266772;28;20240;-69
2023/08/21 11:56:13;;;;;;;6.40;5.90;;;35.30;24.50;;;;;;10263800;28;20247;-70
2023/08/21 12:01:20;;;;;;;6.03;5.63;;;35.40;24.00;;;;;;10260308;28;20241;-71
2023/08/21 12:06:26;;;;;;;6.10;5.60;;;35.40;23.90;;;;;;10258900;28;20232;-70
2023/08/21 12:11:30;;;;;;;6.17;5.67;;;35.30;23.80;;;;;;10267060;28;20303;-71
2023/08/21 12:16:33;;;;;;;5.40;5.03;;;35.30;24.40;;;;;;10261785;28;20607;-72
2023/08/21 12:21:38;;;;;;;6.00;5.50;;;35.40;23.90;;;;;;10272170;28;20241;-72
2023/08/21 12:26:41;;;;;;;5.40;5.00;;;35.40;23.90;;;;;;10278976;28;20797;-71
2023/08/21 12:31:53;;;;;;;5.77;5.27;;;35.40;23.90;;;;;;10274867;28;20231;-71
2023/08/21 12:36:57;;;;;;;5.67;5.17;;;35.50;24.00;;;;;;10263912;28;20405;-72
2023/08/21 12:42:01;;;;;;;5.00;4.53;;;35.50;23.40;;;;;;10266515;28;20236;-70
2023/08/21 12:47:04;;;;;;;5.53;5.17;;;35.50;23.90;;;;;;10268341;28;20224;-71
2023/08/21 12:52:09;;;;;;;5.40;5.00;;;35.60;23.90;;;;;;10276688;28;20252;-70
2023/08/21 12:57:13;;;;;;;5.57;5.10;;;35.60;22.90;;;;;;10275026;28;20246;-71
2023/08/21 13:02:17;;;;;;;5.53;5.13;;;35.60;24.00;;;;;;10270622;28;20718;-71
2023/08/21 13:07:22;;;;;;;5.60;5.10;;;35.70;23.80;;;;;;10269220;28;20764;-71
2023/08/21 13:12:25;;;;;;;5.60;5.20;;;35.70;23.30;;;;;;10269825;28;20785;-71
2023/08/21 13:17:28;;;;;;;6.10;5.60;;;35.70;23.60;;;;;;10269558;28;20651;-71
2023/08/21 13:22:48;;;;;;;6.00;5.60;;;35.70;23.20;;;;;;10281533;28;20257;-71
2023/08/21 13:27:52;;;;;;;6.17;5.67;;;35.70;23.30;;;;;;10283652;28;20266;-70
2023/08/21 13:32:56;;;;;;;6.80;6.20;;;35.70;23.00;;;;;;10278952;28;20283;-70
2023/08/21 13:38:00;;;;;;;6.17;5.73;;;35.70;23.40;;;;;;10269940;28;20233;-70
2023/08/21 13:43:04;;;;;;;5.93;5.50;;;35.70;22.70;;;;;;10275305;28;20237;-71
2023/08/21 13:48:07;;;;;;;5.73;5.30;;;35.70;23.00;;;;;;10269518;28;20303;-70
2023/08/21 13:53:12;;;;;;;6.10;5.63;;;35.70;22.90;;;;;;10277704;28;20242;-70
2023/08/21 13:58:15;;;;;;;6.43;5.97;;;35.80;23.00;;;;;;10273585;28;20233;-70
2023/08/21 14:03:19;;;;;;;5.87;5.37;;;35.80;22.70;;;;;;10272879;28;20242;-70
2023/08/21 14:08:23;;;;;;;5.90;5.40;;;35.90;22.40;;;;;;10282603;28;20242;-69
2023/08/21 14:13:26;;;;;;;7.20;5.70;;;35.90;22.00;;;;;;10280994;28;20313;-70
2023/08/21 14:18:30;;;;;;;5.93;5.33;;;35.90;22.00;;;;;;10275304;28;20237;-70
2023/08/21 14:23:34;;;;;;;5.33;4.93;;;35.80;22.10;;;;;;10273000;28;20261;-70
2023/08/21 14:28:37;;;;;;;6.40;5.80;;;35.80;22.20;;;;;;10279860;28;20225;-70
2023/08/21 14:33:41;;;;;;;6.30;5.80;;;35.80;22.40;;;;;;10275033;28;20311;-70
2023/08/21 14:38:45;;;;;;;6.27;5.77;;;35.80;22.30;;;;;;10262895;28;20317;-70
2023/08/21 14:43:48;;;;;;;6.27;5.73;;;35.80;21.80;;;;;;10267515;28;20224;-70
2023/08/21 14:48:52;;;;;;;6.67;5.80;;;35.90;22.20;;;;;;10252149;28;20320;-70
2023/08/21 14:53:56;;;;;;;6.80;6.27;;;35.90;22.00;;;;;;10261885;28;20231;-71
2023/08/21 14:59:00;;;;;;;7.03;6.43;;;36.00;21.80;;;;;;10266297;28;20316;-72
2023/08/21 15:04:03;;;;;;;6.50;6.10;;;36.00;22.00;;;;;;10261144;28;20239;-72
2023/08/21 15:09:09;;;;;;;6.83;6.33;;;36.10;21.70;;;;;;10258469;28;20306;-71
2023/08/21 15:14:12;;;;;;;6.57;6.03;;;36.00;21.50;;;;;;10257333;28;20232;-71
2023/08/21 15:19:15;;;;;;;6.83;6.13;;;36.00;21.90;;;;;;10261636;28;20236;-71
2023/08/21 15:24:20;;;;;;;6.80;6.30;;;36.00;21.70;;;;;;10250680;28;20237;-72
2023/08/21 15:29:23;;;;;;;6.40;6.00;;;36.00;21.80;;;;;;10210829;28;1266472;-71
2023/08/21 15:34:26;;;;;;;6.53;5.97;;;36.00;22.10;;;;;;10266679;28;20233;-72
2023/08/21 15:39:31;;;;;;;6.20;5.77;;;36.00;22.00;;;;;;10256371;28;20239;-71
2023/08/21 15:44:34;;;;;;;7.00;6.50;;;35.90;22.00;;;;;;10256750;28;20243;-71
2023/08/21 15:49:38;;;;;;;6.83;6.23;;;35.90;22.20;;;;;;10264113;28;20254;-72
2023/08/21 15:54:42;;;;;;;6.20;5.70;;;35.80;22.40;;;;;;10249052;28;20237;-71
2023/08/21 15:59:46;;;;;;;6.73;6.13;;;35.80;22.40;;;;;;10254970;28;20313;-72
2023/08/21 16:04:49;;;;;;;6.70;6.10;;;35.90;22.60;;;;;;10263521;28;20235;-72
2023/08/21 16:09:53;;;;;;;6.87;6.27;;;35.90;22.30;;;;;;10268550;28;20321;-72
2023/08/21 16:14:56;;;;;;;7.03;6.27;;;35.90;21.90;;;;;;10274839;28;20236;-72
2023/08/21 16:20:04;;;;;;;6.53;6.03;;;35.90;22.30;;;;;;10260131;28;20234;-73
2023/08/21 16:25:12;;;;;;;6.00;5.50;;;36.00;22.50;;;;;;10271753;28;20231;-72
2023/08/21 16:30:15;;;;;;;6.70;6.20;;;36.00;22.40;;;;;;10257338;28;20265;-71
2023/08/21 16:35:19;;;;;;;6.67;6.10;;;36.10;22.50;;;;;;10254101;28;20258;-71
2023/08/21 16:40:24;;;;;;;6.90;6.27;;;36.10;23.40;;;;;;10252206;28;20324;-71
2023/08/21 16:45:27;;;;;;;7.17;6.60;;;36.00;22.90;;;;;;10258136;28;20240;-72
2023/08/21 16:50:31;;;;;;;7.20;6.70;;;36.00;24.20;;;;;;10266072;28;20374;-71
2023/08/21 16:55:35;;;;;;;7.00;6.40;;;36.00;24.20;;;;;;10264971;28;20246;-71
2023/08/21 17:00:39;;;;;;;7.40;6.77;;;35.90;24.20;;;;;;10266801;28;20788;-71
2023/08/21 17:05:42;;;;;;;6.53;6.03;;;35.80;24.10;;;;;;10263749;28;20233;-71
2023/08/21 17:10:47;;;;;;;6.70;6.17;;;35.80;24.00;;;;;;10273359;28;21057;-71
2023/08/21 17:15:52;;;;;;;6.93;6.30;;;35.70;23.90;;;;;;10269236;28;20233;-71
2023/08/21 17:20:55;;;;;;;6.77;6.20;;;35.60;23.90;;;;;;10278693;28;20243;-71
2023/08/21 17:26:00;;;;;;;6.73;6.10;;;35.60;23.80;;;;;;10265326;28;20228;-71
2023/08/21 17:31:03;;;;;;;6.70;6.20;;;35.50;23.90;;;;;;10270563;28;20229;-71
2023/08/21 17:36:07;;;;;;;6.83;6.33;;;35.40;23.90;;;;;;10271449;28;20238;-71
2023/08/21 17:41:12;;;;;;;7.13;6.63;;;35.30;23.80;;;;;;10266663;28;20239;-71
2023/08/21 17:46:16;;;;;;;6.83;6.23;;;35.20;24.30;;;;;;10264664;28;20327;-71
2023/08/21 17:51:20;;;;;;;6.60;6.10;;;35.10;24.40;;;;;;10264528;28;20327;-71
2023/08/21 17:56:24;;;;;;;7.13;6.20;;;35.00;24.40;;;;;;10268026;28;20703;-71
2023/08/21 18:01:27;;;;;;;6.53;6.03;;;35.00;24.90;;;;;;10263863;28;20241;-71
2023/08/21 18:06:31;;;;;;;7.13;6.43;;;34.90;24.90;;;;;;10267719;28;20319;-71
2023/08/21 18:11:36;;;;;;;7.10;6.60;;;34.70;25.00;;;;;;10274597;28;20239;-71
2023/08/21 18:16:41;;;;;;;14.30;13.17;;;34.60;25.60;;;;;;10269534;28;20264;-71
2023/08/21 18:21:44;;;;;;;15.13;13.73;;;34.60;25.60;;;;;;10276728;28;20227;-71
2023/08/21 18:26:53;;;;;;;21.03;19.17;;;34.40;25.70;;;;;;10266211;28;20233;-71
2023/08/21 18:31:57;;;;;;;20.67;18.67;;;34.30;26.10;;;;;;10262007;28;20233;-71
2023/08/21 18:37:02;;;;;;;12.97;11.97;;;34.10;26.10;;;;;;10265500;28;20255;-71
2023/08/21 18:42:07;;;;;;;11.27;10.17;;;34.00;26.40;;;;;;10271110;28;20240;-71
2023/08/21 18:47:10;;;;;;;9.27;8.57;;;33.80;26.60;;;;;;10267846;28;20226;-71
2023/08/21 18:52:13;;;;;;;8.10;7.50;;;33.70;26.60;;;;;;10273492;28;20248;-71
2023/08/21 18:57:18;;;;;;;7.50;6.90;;;33.60;27.00;;;;;;10256494;28;20721;-71
2023/08/21 19:02:21;;;;;;;7.30;6.70;;;33.40;27.40;;;;;;10270072;28;20271;-71
2023/08/21 19:07:24;;;;;;;6.70;6.23;;;33.30;27.20;;;;;;10266196;28;20673;-71
2023/08/21 19:12:29;;;;;;;7.30;6.77;;;33.10;27.40;;;;;;10270690;28;20248;-71
2023/08/21 19:17:32;;;;;;;7.07;6.47;;;33.10;27.80;;;;;;10265494;28;20234;-71
2023/08/21 19:22:36;;;;;;;7.63;7.03;;;33.00;27.80;;;;;;10268350;28;20254;-71
2023/08/21 19:27:42;;;;;;;7.60;7.00;;;32.90;28.20;;;;;;10266523;28;20236;-71
2023/08/21 19:32:45;;;;;;;7.17;6.50;;;32.80;28.50;;;;;;10263322;28;20316;-71
2023/08/21 19:37:48;;;;;;;7.77;7.17;;;32.80;28.20;;;;;;10271868;28;20223;-71
2023/08/21 19:42:53;;;;;;;7.73;7.03;;;32.60;28.40;;;;;;10258196;28;20338;-71
2023/08/21 19:47:56;;;;;;;7.60;7.00;;;32.40;28.90;;;;;;10263993;28;20323;-71
2023/08/21 19:53:00;;;;;;;7.33;6.80;;;32.30;28.90;;;;;;10267981;28;20314;-71
2023/08/21 19:58:04;;;;;;;6.90;6.30;;;32.10;28.90;;;;;;10256474;28;20323;-71
2023/08/21 20:03:08;;;;;;;7.73;7.13;;;32.00;29.50;;;;;;10262561;28;20236;-71
2023/08/21 20:08:11;;;;;;;8.43;7.63;;;31.90;29.20;;;;;;10260884;28;20323;-71
2023/08/21 20:13:18;;;;;;;8.50;7.80;;;31.70;29.30;;;;;;10261563;28;20339;-71
2023/08/21 20:18:21;;;;;;;7.77;7.17;;;31.60;30.00;;;;;;10256994;28;20332;-72
2023/08/21 20:23:28;;;;;;;7.80;7.30;;;31.40;29.70;;;;;;10258485;28;20232;-71
2023/08/21 20:28:33;;;;;;;7.37;6.77;;;31.30;30.00;;;;;;10256183;28;20758;-71
2023/08/21 20:33:36;;;;;;;7.83;7.17;;;31.20;30.90;;;;;;10257859;28;20231;-71
2023/08/21 20:38:40;;;;;;;7.80;7.10;;;31.10;30.70;;;;;;10258755;28;20234;-71
2023/08/21 20:43:44;;;;;;;7.57;6.97;;;31.00;30.60;;;;;;10270597;28;20232;-71
2023/08/21 20:48:47;;;;;;;7.83;7.23;;;30.90;31.30;;;;;;10264946;28;20756;-71
2023/08/21 20:53:50;;;;;;;8.77;7.97;;;30.80;31.10;;;;;;10261284;28;20327;-70
2023/08/21 20:58:55;;;;;;;9.03;8.20;;;30.70;31.40;;;;;;10271700;28;20224;-71
2023/08/21 21:03:58;;;;;;;9.13;8.23;;;30.50;31.90;;;;;;10278883;28;20248;-71
2023/08/21 21:09:03;;;;;;;8.43;7.70;;;30.30;31.70;;;;;;10268414;28;20223;-71
2023/08/21 21:14:08;;;;;;;8.03;7.27;;;30.10;31.60;;;;;;10266264;28;20287;-71
2023/08/21 21:19:11;;;;;;;8.00;7.40;;;30.00;33.00;;;;;;10270434;28;20237;-71
2023/08/21 21:24:14;;;;;;;9.50;8.60;;;29.90;32.50;;;;;;10271385;28;20267;-71
2023/08/21 21:29:19;;;;;;;8.60;7.90;;;29.80;32.80;;;;;;10259248;28;20228;-71
2023/08/21 21:34:22;;;;;;;9.70;8.50;;;29.70;33.50;;;;;;10273414;28;20482;-70
2023/08/21 21:39:26;;;;;;;9.57;8.77;;;29.60;33.30;;;;;;10275302;28;20622;-71
2023/08/21 21:44:31;;;;;;;8.87;8.17;;;29.40;33.70;;;;;;10273771;28;20740;-71
2023/08/21 21:49:34;;;;;;;8.93;8.23;;;29.20;34.30;;;;;;10270628;28;20351;-71
2023/08/21 21:54:37;;;;;;;8.70;7.90;;;29.10;34.00;;;;;;10277451;28;20681;-70
2023/08/21 21:59:42;;;;;;;8.80;8.10;;;29.10;34.30;;;;;;10252999;28;20258;-71
2023/08/21 22:04:45;;;;;;;7.90;7.30;;;29.00;34.80;;;;;;10264801;28;20231;-71
2023/08/21 22:09:48;;;;;;;8.00;7.40;;;29.10;34.40;;;;;;10261882;28;20777;-71
2023/08/21 22:14:53;;;;;;;8.63;7.90;;;29.10;34.50;;;;;;10273005;28;20230;-71
2023/08/21 22:19:57;;;;;;;9.40;8.60;;;29.10;35.30;;;;;;10273987;28;20236;-71
2023/08/21 22:25:00;;;;;;;10.93;9.23;;;29.00;34.80;;;;;;10274297;28;20253;-71
2023/08/21 22:30:07;;;;;;;10.33;9.33;;;28.90;35.00;;;;;;10268469;28;20227;-70
2023/08/21 22:35:10;;;;;;;10.20;9.40;;;28.70;36.10;;;;;;10272322;28;20281;-71
2023/08/21 22:40:13;;;;;;;9.60;8.70;;;28.40;35.70;;;;;;10263171;28;20239;-71
2023/08/21 22:45:18;;;;;;;9.63;8.83;;;28.30;35.90;;;;;;10261933;28;20240;-71
2023/08/21 22:50:21;;;;;;;10.00;9.10;;;28.20;36.90;;;;;;10274653;28;20244;-71
2023/08/21 22:55:25;;;;;;;9.03;8.27;;;28.20;36.50;;;;;;10266663;28;20327;-71
2023/08/21 23:00:29;;;;;;;8.13;7.53;;;28.20;36.50;;;;;;10277227;28;20327;-71
2023/08/21 23:05:32;;;;;;;9.60;8.80;;;28.20;37.00;;;;;;10258439;28;20326;-71
2023/08/21 23:10:35;;;;;;;9.47;8.67;;;28.20;36.80;;;;;;10274934;28;20715;-71
2023/08/21 23:15:46;;;;;;;9.17;8.37;;;28.10;36.70;;;;;;10276954;28;20330;-71
2023/08/21 23:20:56;;;;;;;10.13;9.23;;;28.00;38.10;;;;;;10262849;28;20234;-70
2023/08/21 23:26:01;;;;;;;9.07;8.27;;;28.00;38.60;;;;;;10275682;28;20286;-70
2023/08/21 23:31:05;;;;;;;9.93;9.07;;;27.90;37.40;;;;;;10230185;29;20252;-70
2023/08/21 23:36:09;;;;;;;8.83;8.10;;;27.90;38.10;;;;;;10230337;29;20326;-71
2023/08/21 23:41:12;;;;;;;9.57;8.77;;;27.90;37.50;;;;;;10233446;29;20259;-70
2023/08/21 23:46:16;;;;;;;9.50;8.80;;;28.00;37.90;;;;;;10226833;29;20625;-71
2023/08/21 23:51:20;;;;;;;9.60;8.90;;;28.00;38.40;;;;;;10213878;29;20237;-70
2023/08/21 23:56:23;;;;;;;9.23;8.43;;;27.90;37.70;;;;;;10232669;29;20236;-70
